• Join FlightAware (Why Join?)
  • Login
  • US Flag 
09:54AM EST


 

Airport Tracker/Info


-or-


 

Live Flight TrackerFlight Track Log ✈ UAL4663 ✈ 09-Apr-2013 ✈ KEWR - KRDU

Flight Track Log - Related Links

Times and Time Zones

All times are in EDT time to prevent confusion due to time zone crossing. See the UAL4663 flight status page for this flight to view local times or setup timezone preferences in your user account.

Time Position Orientation Groundspeed Altitude Reporting Facility
EDT Latitude Longitude Course Direction KTS MPH feet Rate Location/Type
06:25PM 40.6167 -74.2000 180° South 206 237 2,600  Level New York TRACON
06:26PM 40.5667 -74.2667 225° Southwest 255 293 4,600 1,680 Climbing New York TRACON
06:27PM 40.4833 -74.2500 171° South 274 315 6,000 540 Climbing New York TRACON
06:28PM 40.2993 -74.1502 194° South  Level FlightAware Approximate
06:29PM 40.1967 -74.1844 194° South  Level FlightAware Approximate
06:30PM 40.0947 -74.2167 180° South  Level FlightAware Approximate
06:30PM 40.3317 -74.2342 175° South 270 311 6,500  Level New York Center
06:31PM 39.9947 -74.2500 180° South  Level FlightAware Approximate
06:31PM 40.2461 -74.2408 183° South 277 319 8,500  Level New York Center
06:32PM 40.1758 -74.2833 205° Southwest 277 319 10,300 1,380 Climbing New York Center
06:34PM 40.0039 -74.4486 216° Southwest 322 371 13,400 1,260 Climbing Washington Center
06:35PM 39.9253 -74.5228 216° Southwest 343 395 14,700 1,200 Climbing Washington Center
06:36PM 39.8489 -74.5969 217° Southwest 343 395 15,800 1,020 Climbing Washington Center
06:37PM 39.7661 -74.6736 215° Southwest 356 410 16,800 960 Climbing Washington Center
06:38PM 39.6753 -74.7611 217° Southwest 362 417 17,800 1,020 Climbing Washington Center
06:39PM 39.5925 -74.8375 215° Southwest 367 422 18,900 1,020 Climbing Washington Center
06:40PM 39.5053 -74.9192 216° Southwest 379 436 19,900 960 Climbing Washington Center
06:41PM 39.4203 -74.9978 216° Southwest 379 436 20,900 960 Climbing Washington Center
06:42PM 39.3331 -75.0817 217° Southwest 384 442 21,900 960 Climbing Washington Center
06:43PM 39.2522 -75.1761 222° Southwest 389 448 22,900 960 Climbing Washington Center
06:44PM 39.1756 -75.2731 224° Southwest 389 448 23,900 960 Climbing Washington Center
06:45PM 39.1028 -75.3697 226° Southwest 389 448 24,900 960 Climbing Washington Center
06:46PM 39.0278 -75.4661 225° Southwest 384 442 25,900 540 Climbing Washington Center
06:47PM 38.9508 -75.5675 226° Southwest 384 442 26,000  Climbing Washington Center
06:48PM 38.8653 -75.6636 221° Southwest 390 449 26,000  Level Washington Center
06:49PM 38.7714 -75.7542 217° Southwest 410 472 26,000  Level Washington Center
06:50PM 38.6753 -75.8469 217° Southwest 431 496 26,000  Level Washington Center
06:51PM 38.5814 -75.9450 219° Southwest 436 502 26,000  Level Washington Center
06:52PM 38.4808 -76.0319 214° Southwest 442 509 26,000  Level Washington Center
06:53PM 38.3847 -76.1214 216° Southwest 447 514 26,000  Level Washington Center
06:54PM 38.2883 -76.2161 218° Southwest 432 497 26,000  Level Washington Center
06:55PM 38.1897 -76.3078 216° Southwest 445 512 26,000  Level Washington Center
06:56PM 38.0933 -76.4017 217° Southwest 445 512 26,000  Level Washington Center
06:57PM 37.9947 -76.4956 217° Southwest 445 512 26,000  Level Washington Center
06:58PM 37.8939 -76.5892 216° Southwest 445 512 26,000  Level Washington Center
06:59PM 37.7969 -76.6825 217° Southwest 445 512 26,000  Level Washington Center
07:00PM 37.6961 -76.7728 215° Southwest 445 512 26,000 -540 Level Washington Center
07:01PM 37.6075 -76.8581 217° Southwest 445 512 25,000 -1,800 Descending Washington Center
07:02PM 37.4958 -76.9608 216° Southwest 445 512 22,400 -1,500 Descending Washington Center
07:03PM 37.4011 -77.0506 217° Southwest 445 512 22,000 -540 Descending Washington Center
07:04PM 37.3144 -77.1300 216° Southwest 433 498 21,400 -900 Descending Washington Center
07:05PM 37.2089 -77.2269 216° Southwest 438 504 20,300 -720 Descending Washington Center
07:06PM 37.1139 -77.3133 216° Southwest 438 504 20,000 -180 Descending Washington Center
07:07PM 37.0186 -77.4025 217° Southwest 438 504 20,000  Level Washington Center
07:08PM 36.9256 -77.4886 217° Southwest 433 498 20,000  Level Washington Center
07:09PM 36.8303 -77.5744 216° Southwest 433 498 20,000  Level Washington Center
07:10PM 36.7369 -77.6575 216° Southwest 433 498 20,000  Level Washington Center
07:11PM 36.6458 -77.7431 217° Southwest 423 487 20,000 -240 Level Washington Center
07:12PM 36.5525 -77.8258 215° Southwest 418 481 19,600 -1,260 Descending Washington Center
07:13PM 36.4592 -77.9086 216° Southwest 418 481 17,500 -2,280 Descending Washington Center
07:14PM 36.3956 -77.9658 216° Southwest 404 465 15,800 -2,220 Descending Washington Center
07:14PM 36.3719 -77.9911 221° Southwest 411 473 15,300 -1,980 Descending Washington Center
07:15PM 36.2828 -78.0681 215° Southwest 405 466 13,200 -2,040 Descending Washington Center
07:16PM 36.2019 -78.1378 215° Southwest 380 437 11,400 -1,560 Descending Washington Center
07:17PM 36.1417 -78.2283 231° Southwest 348 400 10,100 -1,560 Descending Washington Center
07:18PM 36.1086 -78.3094 243° Southwest 267 307 8,300 -1,800 Descending Washington Center
07:19PM 36.0856 -78.4011 253° West 267 307 6,500 -1,740 Descending Washington Center
07:20PM 36.0650 -78.4803 252° West 244 281 4,800 -1,320 Descending Washington Center
07:21PM 36.0486 -78.5489 254° West 205 236 4,000 -840 Descending Washington Center
07:22PM 36.0306 -78.6072 249° West 179 206 3,100 -540 Descending Washington Center
07:23PM 35.9981 -78.6522 228° Southwest 176 203 3,000 -480 Descending Washington Center
07:24PM 35.9614 -78.6944 223° Southwest 176 203 2,200 -840 Descending Washington Center